Trans Exeter — 9HA2572 — position and weather

sailwx.info

Track history (hours):
 
Tides and Currents Weather Stations Pressure Air Temp Water Temp Dewpoint Dewpoint Depression Visibility Wind Speed Wind Dir Waves Ship Positions

Trans Exeter

Last reported at 2014-Dec-12 08:33 UTC. Time now 2014-Dec-19 17:31 UTC.
Position N 41°20' E 029°38'.

Length 118 m; draft 6.3 m.

Type: Ship (hazmat cat C). MMSI: 248908000.

Date/timePositionNaut miles runAvg speedWind from/ knotsBaromVisibWave heightAir tempDewpointWater temp
2014-Dec-12 08:33N 41°20' E 029°38'1514.7
2014-Dec-12 07:33N 41°17' E 029°19'  
2014-Dec-06 06:33N 40°46' E 029°32'8 8.2
2014-Dec-06 05:33N 40°44' E 029°21'1313.1
2014-Dec-06 04:33N 40°44' E 029°04'1413.7
2014-Dec-06 03:33N 40°44' E 028°46'28112.2
2014-Dec-05 04:32N 37°38' E 024°13'9613.2
2014-Dec-04 21:16N 36°24' E 022°57'40714.2
2014-Dec-03 16:31N 36°29' E 014°30'1714.1
2014-Dec-03 15:20N 36°34' E 014°11'1214.5
2014-Dec-03 14:32N 36°37' E 013°57'1914.3
2014-Dec-03 13:12N 36°43' E 013°34'  
Track history (hours):
 
Tides and Currents Weather Stations Pressure Air Temp Water Temp Dewpoint Dewpoint Depression Visibility Wind Speed Wind Dir Waves Ship Positions

Trans Exeter

Last reported at 2014-Dec-12 08:33 UTC. Time now 2014-Dec-19 17:31 UTC.
Position N 41°20' E 029°38'.

Length 118 m; draft 6.3 m.

Type: Ship (hazmat cat C). MMSI: 248908000.

Date/timePositionNaut miles runAvg speedWind from/ knotsBaromVisibWave heightAir tempDewpointWater temp
2014-Dec-12 08:33N 41°20' E 029°38'1514.7
2014-Dec-12 07:33N 41°17' E 029°19'  
2014-Dec-06 06:33N 40°46' E 029°32'8 8.2
2014-Dec-06 05:33N 40°44' E 029°21'1313.1
2014-Dec-06 04:33N 40°44' E 029°04'1413.7
2014-Dec-06 03:33N 40°44' E 028°46'28112.2
2014-Dec-05 04:32N 37°38' E 024°13'9613.2
2014-Dec-04 21:16N 36°24' E 022°57'40714.2
2014-Dec-03 16:31N 36°29' E 014°30'1714.1
2014-Dec-03 15:20N 36°34' E 014°11'1214.5
2014-Dec-03 14:32N 36°37' E 013°57'1914.3
2014-Dec-03 13:12N 36°43' E 013°34'  

Dump ship's entire track history